Time;durP1;ratioP1;P1;durP2;ratioP2;P2;SDS_P1;SDS_P2;PMS_P1;PMS_P2;Temp;Humidity;BMP_temperature;BMP_pressure;BME280_temperature;BME280_humidity;BME280_pressure;Samples;Min_cycle;Max_cycle;Signal;HPM_P1;HPM_P2
2024/01/27 00:01:11;;;;;;;38.10;36.15;;;;;;;;;;5032686;28;20071;-59
2024/01/27 00:03:37;;;;;;;41.13;39.03;;;;;;;;;;5031523;28;20879;-59
2024/01/27 00:06:02;;;;;;;41.05;38.95;;;;;;;;;;5033736;28;20071;-59
2024/01/27 00:08:28;;;;;;;41.75;39.65;;;;;;;;;;5032851;28;20063;-59
2024/01/27 00:10:53;;;;;;;41.00;38.90;;;;;;;;;;5034511;28;20032;-59
2024/01/27 00:13:18;;;;;;;39.75;37.72;;;;;;;;;;5035599;28;20056;-63
2024/01/27 00:15:44;;;;;;;39.40;37.38;;;;;;;;;;5031898;28;20036;-62
2024/01/27 00:18:09;;;;;;;39.38;37.38;;;;;;;;;;5031604;28;20029;-62
2024/01/27 00:20:34;;;;;;;39.97;37.90;;;;;;;;;;5033457;28;20087;-62
2024/01/27 00:22:59;;;;;;;40.92;38.83;;;;;;;;;;5034598;28;20554;-62
2024/01/27 00:25:25;;;;;;;41.00;38.63;;;;;;;;;;5034346;28;20126;-62
2024/01/27 00:27:50;;;;;;;40.60;38.50;;;;;;;;;;5032399;28;20332;-62
2024/01/27 00:30:15;;;;;;;39.72;37.63;;;;;;;;;;5029988;28;20120;-62
2024/01/27 00:32:41;;;;;;;36.92;34.90;;;;;;;;;;5032331;28;20044;-62
2024/01/27 00:35:07;;;;;;;38.35;36.35;;;;;;;;;;5035149;28;20080;-59
2024/01/27 00:37:32;;;;;;;39.25;37.25;;;;;;;;;;5032679;28;20091;-59
2024/01/27 00:39:58;;;;;;;40.08;37.97;;;;;;;;;;5033461;28;20045;-59
2024/01/27 00:42:24;;;;;;;38.83;36.78;;;;;;;;;;5032715;28;20028;-59
2024/01/27 00:44:52;;;;;;;37.72;35.80;;;;;;;;;;5030419;28;20103;-62
2024/01/27 00:47:17;;;;;;;38.65;36.45;;;;;;;;;;5031728;28;20417;-63
2024/01/27 00:49:43;;;;;;;38.35;36.35;;;;;;;;;;5033822;28;20120;-63
2024/01/27 00:52:08;;;;;;;38.58;36.35;;;;;;;;;;5030312;28;20059;-62
2024/01/27 00:54:33;;;;;;;37.67;35.67;;;;;;;;;;5035174;28;20104;-63
2024/01/27 00:56:59;;;;;;;34.17;32.38;;;;;;;;;;5032747;28;20124;-63
2024/01/27 00:59:24;;;;;;;34.10;32.35;;;;;;;;;;5031120;28;20713;-63
2024/01/27 01:01:49;;;;;;;33.08;31.38;;;;;;;;;;5032111;28;20079;-62
2024/01/27 01:04:15;;;;;;;34.95;33.15;;;;;;;;;;5032741;28;20112;-63
2024/01/27 01:06:40;;;;;;;34.97;33.08;;;;;;;;;;5034234;28;20132;-63
2024/01/27 01:09:06;;;;;;;32.33;30.63;;;;;;;;;;5028879;28;20116;-63
2024/01/27 01:11:31;;;;;;;31.70;30.00;;;;;;;;;;5037233;28;20025;-63
2024/01/27 01:13:56;;;;;;;34.03;32.25;;;;;;;;;;5033924;28;20045;-63
2024/01/27 01:16:22;;;;;;;32.55;30.85;;;;;;;;;;5029481;28;20112;-63
2024/01/27 01:18:47;;;;;;;32.65;30.67;;;;;;;;;;5034848;28;20439;-62
2024/01/27 01:21:12;;;;;;;33.22;31.50;;;;;;;;;;5030965;28;20064;-63
2024/01/27 01:23:38;;;;;;;32.10;30.40;;;;;;;;;;5031888;28;20025;-63
2024/01/27 01:26:03;;;;;;;33.22;31.52;;;;;;;;;;5034241;28;20044;-62
2024/01/27 01:28:29;;;;;;;32.97;31.25;;;;;;;;;;5034340;28;20033;-63
2024/01/27 01:30:54;;;;;;;35.00;33.10;;;;;;;;;;5037146;28;20721;-63
2024/01/27 01:33:19;;;;;;;37.22;35.33;;;;;;;;;;5036884;28;20040;-63
2024/01/27 01:35:45;;;;;;;35.30;33.50;;;;;;;;;;5035216;28;20033;-63
2024/01/27 01:38:10;;;;;;;36.35;34.45;;;;;;;;;;5033493;28;20463;-63
2024/01/27 01:40:36;;;;;;;32.47;30.70;;;;;;;;;;5034791;28;20041;-62
2024/01/27 01:43:03;;;;;;;30.58;28.90;;;;;;;;;;5035926;28;20628;-63
2024/01/27 01:45:29;;;;;;;31.55;29.85;;;;;;;;;;5034651;28;20049;-63
2024/01/27 01:47:55;;;;;;;33.92;32.05;;;;;;;;;;5037954;28;20043;-62
2024/01/27 01:50:21;;;;;;;30.55;28.95;;;;;;;;;;5035911;28;20043;-59
2024/01/27 01:52:49;;;;;;;29.95;28.25;;;;;;;;;;5034287;28;20065;-59
2024/01/27 01:55:14;;;;;;;29.65;27.95;;;;;;;;;;5036449;28;20037;-59
2024/01/27 01:57:40;;;;;;;28.95;27.40;;;;;;;;;;5035552;28;20026;-59
2024/01/27 02:00:06;;;;;;;29.58;27.88;;;;;;;;;;5034003;28;20037;-59
2024/01/27 02:02:31;;;;;;;30.67;29.08;;;;;;;;;;5034109;28;20423;-59
2024/01/27 02:04:56;;;;;;;28.40;26.90;;;;;;;;;;5040374;28;20047;-59
2024/01/27 02:07:21;;;;;;;26.85;25.45;;;;;;;;;;5035056;28;20032;-59
2024/01/27 02:09:47;;;;;;;28.23;26.67;;;;;;;;;;5035287;28;20356;-59
2024/01/27 02:12:12;;;;;;;32.00;30.30;;;;;;;;;;5035836;28;20095;-59
2024/01/27 02:14:38;;;;;;;33.35;31.63;;;;;;;;;;5034814;28;20041;-59
2024/01/27 02:17:04;;;;;;;33.17;31.42;;;;;;;;;;5034929;28;20053;-59
2024/01/27 02:19:29;;;;;;;29.48;27.95;;;;;;;;;;5037455;28;20087;-59
2024/01/27 02:21:55;;;;;;;29.95;28.35;;;;;;;;;;5033711;28;20366;-59
2024/01/27 02:24:20;;;;;;;28.25;26.48;;;;;;;;;;5035729;28;20044;-59
2024/01/27 02:26:45;;;;;;;25.08;23.77;;;;;;;;;;5034468;28;20122;-59
2024/01/27 02:29:10;;;;;;;25.98;24.48;;;;;;;;;;5034565;28;20124;-59
2024/01/27 02:31:36;;;;;;;26.55;25.00;;;;;;;;;;5036041;28;20033;-59
2024/01/27 02:34:01;;;;;;;26.27;24.88;;;;;;;;;;5035541;28;20432;-59
2024/01/27 02:36:27;;;;;;;26.10;24.60;;;;;;;;;;5033641;28;20114;-59
2024/01/27 02:38:52;;;;;;;27.73;26.10;;;;;;;;;;5031959;28;20033;-59
2024/01/27 02:41:17;;;;;;;26.40;25.00;;;;;;;;;;5033806;28;20044;-58
2024/01/27 02:43:43;;;;;;;25.77;24.40;;;;;;;;;;5032823;28;20033;-59
2024/01/27 02:46:11;;;;;;;25.27;23.98;;;;;;;;;;5031317;28;20037;-59
2024/01/27 02:48:36;;;;;;;28.13;26.52;;;;;;;;;;5036062;28;20043;-59
2024/01/27 02:51:02;;;;;;;25.58;23.98;;;;;;;;;;5031724;28;20042;-62
2024/01/27 02:53:27;;;;;;;27.10;25.60;;;;;;;;;;5033325;28;20044;-62
2024/01/27 02:55:53;;;;;;;27.58;26.02;;;;;;;;;;5032775;28;20047;-62
2024/01/27 02:58:18;;;;;;;28.30;26.75;;;;;;;;;;5034031;28;20033;-62
2024/01/27 03:00:43;;;;;;;29.80;28.10;;;;;;;;;;5035930;28;20149;-62
2024/01/27 03:03:09;;;;;;;29.50;27.90;;;;;;;;;;5034894;28;20134;-62
2024/01/27 03:05:34;;;;;;;32.38;30.58;;;;;;;;;;5032183;28;20052;-59
2024/01/27 03:08:00;;;;;;;30.60;29.00;;;;;;;;;;5030055;28;20127;-59
2024/01/27 03:10:25;;;;;;;30.50;28.85;;;;;;;;;;5035223;28;20048;-58
2024/01/27 03:12:50;;;;;;;31.80;30.10;;;;;;;;;;5035754;28;20406;-62
2024/01/27 03:15:15;;;;;;;30.17;28.58;;;;;;;;;;5034066;28;20586;-62
2024/01/27 03:17:41;;;;;;;29.45;27.92;;;;;;;;;;5037165;28;20043;-62
2024/01/27 03:20:08;;;;;;;31.73;30.08;;;;;;;;;;5033233;28;20044;-62
2024/01/27 03:22:33;;;;;;;29.83;28.20;;;;;;;;;;5031112;28;20022;-62
2024/01/27 03:24:59;;;;;;;28.67;27.17;;;;;;;;;;5031060;28;20961;-63
2024/01/27 03:27:24;;;;;;;29.90;28.35;;;;;;;;;;5035043;28;20037;-62
2024/01/27 03:29:49;;;;;;;32.33;30.65;;;;;;;;;;5036299;28;20033;-62
2024/01/27 03:32:15;;;;;;;37.17;33.90;;;;;;;;;;5033864;28;20604;-62
2024/01/27 03:34:44;;;;;;;34.25;32.47;;;;;;;;;;5033510;28;20049;-62
2024/01/27 03:37:10;;;;;;;30.73;29.15;;;;;;;;;;5029383;28;20156;-62
2024/01/27 03:39:35;;;;;;;29.85;28.23;;;;;;;;;;5033309;28;20119;-62
2024/01/27 03:42:00;;;;;;;29.38;27.83;;;;;;;;;;5034014;28;20171;-62
2024/01/27 03:44:26;;;;;;;28.45;26.95;;;;;;;;;;5029935;28;20033;-62
2024/01/27 03:46:51;;;;;;;30.85;28.52;;;;;;;;;;5033962;28;20446;-63
2024/01/27 03:49:16;;;;;;;29.80;28.23;;;;;;;;;;5033697;28;20044;-62
2024/01/27 03:51:42;;;;;;;28.55;27.05;;;;;;;;;;5036714;28;20550;-62
2024/01/27 03:54:07;;;;;;;31.10;29.45;;;;;;;;;;5033877;28;20048;-62
2024/01/27 03:56:32;;;;;;;32.30;30.42;;;;;;;;;;5031582;28;20048;-62
2024/01/27 03:58:57;;;;;;;32.20;30.50;;;;;;;;;;5033630;28;20036;-62
2024/01/27 04:01:23;;;;;;;34.20;32.40;;;;;;;;;;5036026;28;20434;-62
2024/01/27 04:03:48;;;;;;;35.80;33.80;;;;;;;;;;5030343;28;20098;-62
2024/01/27 04:06:13;;;;;;;35.80;33.90;;;;;;;;;;5030426;28;20033;-62
2024/01/27 04:08:39;;;;;;;33.85;32.13;;;;;;;;;;5033676;28;20471;-62
2024/01/27 04:11:04;;;;;;;34.22;32.42;;;;;;;;;;5031870;28;20131;-62
2024/01/27 04:13:30;;;;;;;34.38;32.47;;;;;;;;;;5031293;28;20065;-62
2024/01/27 04:15:57;;;;;;;36.22;34.33;;;;;;;;;;5030379;28;20051;-62
2024/01/27 04:18:22;;;;;;;35.20;33.20;;;;;;;;;;5034352;28;20033;-62
2024/01/27 04:20:48;;;;;;;34.70;32.90;;;;;;;;;;5025614;28;20502;-62
2024/01/27 04:23:13;;;;;;;32.25;30.48;;;;;;;;;;5033812;28;20026;-62
2024/01/27 04:25:39;;;;;;;31.58;29.80;;;;;;;;;;5034381;28;20032;-62
2024/01/27 04:28:04;;;;;;;32.83;30.60;;;;;;;;;;5030328;28;20063;-62
2024/01/27 04:30:30;;;;;;;31.17;29.52;;;;;;;;;;5030952;28;20147;-62
2024/01/27 04:32:55;;;;;;;33.35;31.60;;;;;;;;;;5032036;28;20040;-62
2024/01/27 04:35:20;;;;;;;35.58;33.67;;;;;;;;;;5032552;28;20048;-62
2024/01/27 04:37:46;;;;;;;34.78;33.00;;;;;;;;;;5033000;28;20280;-62
2024/01/27 04:40:12;;;;;;;30.98;29.38;;;;;;;;;;5030757;28;20411;-62
2024/01/27 04:42:38;;;;;;;32.15;30.48;;;;;;;;;;5032005;28;20033;-62
2024/01/27 04:45:04;;;;;;;32.70;31.02;;;;;;;;;;5029342;28;20044;-62
2024/01/27 04:47:30;;;;;;;34.88;32.85;;;;;;;;;;5033101;28;20036;-62
2024/01/27 04:49:57;;;;;;;35.33;33.53;;;;;;;;;;5032432;28;20036;-58
2024/01/27 04:52:22;;;;;;;33.67;31.80;;;;;;;;;;5029138;28;20061;-58
2024/01/27 04:54:47;;;;;;;33.95;32.17;;;;;;;;;;5031382;28;20057;-59
2024/01/27 04:57:13;;;;;;;34.67;32.88;;;;;;;;;;5029498;28;20042;-59
2024/01/27 04:59:38;;;;;;;35.08;33.28;;;;;;;;;;5031858;28;20040;-58
2024/01/27 05:02:03;;;;;;;35.47;33.38;;;;;;;;;;5033904;28;20029;-58
2024/01/27 05:04:29;;;;;;;34.72;32.92;;;;;;;;;;5032552;28;20566;-58
2024/01/27 05:06:54;;;;;;;34.17;31.60;;;;;;;;;;5032603;28;20594;-59
2024/01/27 05:09:19;;;;;;;35.13;33.13;;;;;;;;;;5035413;28;20040;-59
2024/01/27 05:11:45;;;;;;;35.50;33.40;;;;;;;;;;5035668;28;20525;-59
2024/01/27 05:14:11;;;;;;;31.80;30.02;;;;;;;;;;5032931;28;20347;-58
2024/01/27 05:16:37;;;;;;;29.35;27.80;;;;;;;;;;5041078;28;20109;-59
2024/01/27 05:19:02;;;;;;;31.73;29.92;;;;;;;;;;5037580;28;20045;-59
2024/01/27 05:21:27;;;;;;;30.40;28.80;;;;;;;;;;5034870;28;20040;-59
2024/01/27 05:23:53;;;;;;;32.63;30.92;;;;;;;;;;5039456;28;20104;-59
2024/01/27 05:26:18;;;;;;;33.85;31.67;;;;;;;;;;5031584;28;20665;-58
2024/01/27 05:28:44;;;;;;;33.90;32.15;;;;;;;;;;5036944;28;20386;-59
2024/01/27 05:31:09;;;;;;;35.15;33.03;;;;;;;;;;5032672;28;20082;-59
2024/01/27 05:33:35;;;;;;;32.83;31.13;;;;;;;;;;5035329;28;20047;-58
2024/01/27 05:36:01;;;;;;;32.75;31.05;;;;;;;;;;5035515;28;20061;-59
2024/01/27 05:38:28;;;;;;;33.33;31.08;;;;;;;;;;5030995;28;20400;-59
2024/01/27 05:40:53;;;;;;;34.25;32.40;;;;;;;;;;5036386;28;20021;-58
2024/01/27 05:43:19;;;;;;;36.70;34.35;;;;;;;;;;5037045;28;20036;-59
2024/01/27 05:45:45;;;;;;;35.65;33.83;;;;;;;;;;5034190;28;20128;-59
2024/01/27 05:48:10;;;;;;;38.40;36.03;;;;;;;;;;5035761;28;20555;-59
2024/01/27 05:50:36;;;;;;;35.67;33.83;;;;;;;;;;5034138;28;20036;-56
2024/01/27 05:53:01;;;;;;;36.40;34.50;;;;;;;;;;5032302;28;20037;-59
2024/01/27 05:55:26;;;;;;;37.90;35.90;;;;;;;;;;5036073;28;20037;-59
2024/01/27 05:57:52;;;;;;;35.00;33.20;;;;;;;;;;5036098;28;20090;-58
2024/01/27 06:00:17;;;;;;;36.28;34.38;;;;;;;;;;5033356;28;20029;-58
2024/01/27 06:02:42;;;;;;;36.40;34.50;;;;;;;;;;5036013;28;20025;-59
2024/01/27 06:05:09;;;;;;;39.72;37.72;;;;;;;;;;5034275;28;20568;-60
2024/01/27 06:07:34;;;;;;;39.47;37.22;;;;;;;;;;5033808;28;20034;-59
2024/01/27 06:10:00;;;;;;;37.17;35.28;;;;;;;;;;5034664;28;20049;-60
2024/01/27 06:12:25;;;;;;;38.25;36.28;;;;;;;;;;5033861;28;20114;-59
2024/01/27 06:14:50;;;;;;;40.33;38.22;;;;;;;;;;5030616;28;20030;-59
2024/01/27 06:17:16;;;;;;;35.40;33.50;;;;;;;;;;5029772;28;20459;-59
2024/01/27 06:19:41;;;;;;;38.33;35.58;;;;;;;;;;5032949;28;20036;-59
2024/01/27 06:22:07;;;;;;;38.22;36.28;;;;;;;;;;5031110;28;20036;-58
2024/01/27 06:24:32;;;;;;;39.58;37.53;;;;;;;;;;5035324;28;20090;-59
2024/01/27 06:26:57;;;;;;;38.08;36.13;;;;;;;;;;5034424;28;20037;-56
2024/01/27 06:29:23;;;;;;;41.72;39.50;;;;;;;;;;5033414;28;20072;-58
2024/01/27 06:31:48;;;;;;;41.35;39.25;;;;;;;;;;5032542;28;20033;-59
2024/01/27 06:34:14;;;;;;;41.53;39.35;;;;;;;;;;5030041;28;20029;-58
2024/01/27 06:36:39;;;;;;;38.60;36.60;;;;;;;;;;5031298;28;20053;-59
2024/01/27 06:39:04;;;;;;;37.55;35.63;;;;;;;;;;5034294;28;20033;-58
2024/01/27 06:41:30;;;;;;;37.38;35.45;;;;;;;;;;5028863;28;21210;-59
2024/01/27 06:43:55;;;;;;;39.80;37.75;;;;;;;;;;5031802;28;20082;-59
2024/01/27 06:46:20;;;;;;;43.42;41.17;;;;;;;;;;5032841;28;20112;-58
2024/01/27 06:48:46;;;;;;;44.22;41.97;;;;;;;;;;5029808;28;20108;-58
2024/01/27 06:51:11;;;;;;;44.85;42.55;;;;;;;;;;5028690;28;20044;-57
2024/01/27 06:53:37;;;;;;;45.50;43.15;;;;;;;;;;5031020;28;20344;-58
2024/01/27 06:56:02;;;;;;;45.03;42.55;;;;;;;;;;5031723;28;20025;-58
2024/01/27 06:58:27;;;;;;;43.53;41.30;;;;;;;;;;5032036;28;20116;-55
2024/01/27 07:00:53;;;;;;;46.40;43.88;;;;;;;;;;5031443;28;20127;-58
2024/01/27 07:03:19;;;;;;;41.95;39.67;;;;;;;;;;5031768;28;20025;-56
2024/01/27 07:05:45;;;;;;;41.42;39.30;;;;;;;;;;5029170;28;20513;-59
2024/01/27 07:08:10;;;;;;;43.58;41.35;;;;;;;;;;5033271;28;20044;-59
2024/01/27 07:10:36;;;;;;;51.00;48.28;;;;;;;;;;5034944;28;20096;-57
2024/01/27 07:13:01;;;;;;;55.13;52.13;;;;;;;;;;5031378;28;20384;-58
2024/01/27 07:15:27;;;;;;;51.40;48.80;;;;;;;;;;5030659;28;20365;-58
2024/01/27 07:17:53;;;;;;;56.03;53.03;;;;;;;;;;5033108;28;20033;-56
2024/01/27 07:20:19;;;;;;;56.38;53.47;;;;;;;;;;5032819;28;20025;-57
2024/01/27 07:22:45;;;;;;;58.05;55.05;;;;;;;;;;5033721;28;20136;-58
2024/01/27 07:25:10;;;;;;;55.53;52.70;;;;;;;;;;5032612;28;20120;-56
2024/01/27 07:27:36;;;;;;;58.80;55.85;;;;;;;;;;5030168;28;20045;-62
2024/01/27 07:30:03;;;;;;;56.45;53.58;;;;;;;;;;5027707;28;20128;-63
2024/01/27 07:32:28;;;;;;;49.33;46.83;;;;;;;;;;5033671;28;20040;-58
2024/01/27 07:34:53;;;;;;;44.90;42.45;;;;;;;;;;5032062;28;20036;-59
2024/01/27 07:37:20;;;;;;;45.10;42.60;;;;;;;;;;5031337;28;20039;-59
2024/01/27 07:39:46;;;;;;;47.15;43.85;;;;;;;;;;5035680;28;20051;-62
2024/01/27 07:42:12;;;;;;;42.05;39.90;;;;;;;;;;5031131;28;20025;-58
2024/01/27 07:44:37;;;;;;;43.30;41.10;;;;;;;;;;5032893;28;20153;-63
2024/01/27 07:47:03;;;;;;;43.00;40.80;;;;;;;;;;5029334;28;20091;-59
2024/01/27 07:49:28;;;;;;;47.72;45.30;;;;;;;;;;5032717;28;20033;-58
2024/01/27 07:51:53;;;;;;;52.13;49.20;;;;;;;;;;5029636;28;20446;-57
2024/01/27 07:54:19;;;;;;;67.07;63.72;;;;;;;;;;5033179;28;20084;-59
2024/01/27 07:56:44;;;;;;;72.38;68.75;;;;;;;;;;5013044;28;20035;-57
2024/01/27 07:59:13;;;;;;;67.57;64.18;;;;;;;;;;5032841;28;20029;-56
2024/01/27 08:01:40;;;;;;;69.00;65.47;;;;;;;;;;5029277;28;20037;-58
2024/01/27 08:04:05;;;;;;;60.50;57.40;;;;;;;;;;5030195;28;20728;-58
2024/01/27 08:06:30;;;;;;;63.38;60.17;;;;;;;;;;5031927;28;20040;-59
2024/01/27 08:08:56;;;;;;;68.38;64.57;;;;;;;;;;5030685;28;20142;-59
2024/01/27 08:11:21;;;;;;;62.13;58.90;;;;;;;;;;5031613;28;20033;-59
2024/01/27 08:13:47;;;;;;;61.53;57.75;;;;;;;;;;5034178;28;20021;-59
2024/01/27 08:16:12;;;;;;;61.15;57.78;;;;;;;;;;5034577;28;20036;-58
2024/01/27 08:18:39;;;;;;;63.38;60.08;;;;;;;;;;5032840;28;20033;-59
2024/01/27 08:21:05;;;;;;;61.40;56.67;;;;;;;;;;5029978;28;20037;-60
2024/01/27 08:23:30;;;;;;;53.80;51.08;;;;;;;;;;5030425;28;20037;-58
2024/01/27 08:25:55;;;;;;;51.28;48.70;;;;;;;;;;5026078;28;20037;-59
2024/01/27 08:28:21;;;;;;;48.78;45.08;;;;;;;;;;5033120;28;20040;-58
2024/01/27 08:30:47;;;;;;;45.55;43.22;;;;;;;;;;5029500;28;20025;-59
2024/01/27 08:33:12;;;;;;;43.88;41.63;;;;;;;;;;5033160;28;20095;-59
2024/01/27 08:35:38;;;;;;;38.97;36.88;;;;;;;;;;5035940;28;20037;-60
2024/01/27 08:38:03;;;;;;;35.67;33.80;;;;;;;;;;5036696;28;20049;-59
2024/01/27 08:40:29;;;;;;;34.67;32.80;;;;;;;;;;5035820;28;20051;-57
2024/01/27 08:42:54;;;;;;;36.22;33.53;;;;;;;;;;5035607;28;20025;-59
2024/01/27 08:45:20;;;;;;;35.17;33.30;;;;;;;;;;5036542;28;20060;-59
2024/01/27 08:47:45;;;;;;;34.30;32.22;;;;;;;;;;5033339;28;20055;-58
2024/01/27 08:50:10;;;;;;;35.60;32.78;;;;;;;;;;5035407;28;20078;-58
2024/01/27 08:52:36;;;;;;;34.30;32.40;;;;;;;;;;5032222;28;20103;-59
2024/01/27 08:55:01;;;;;;;34.85;33.05;;;;;;;;;;5036545;28;20037;-60
2024/01/27 08:57:27;;;;;;;33.45;31.65;;;;;;;;;;5035174;28;20441;-59
2024/01/27 08:59:52;;;;;;;33.53;31.73;;;;;;;;;;5031520;28;20041;-59
2024/01/27 09:02:17;;;;;;;36.65;34.75;;;;;;;;;;5034173;28;20068;-59
2024/01/27 09:04:43;;;;;;;35.30;32.95;;;;;;;;;;5036074;28;20691;-59
2024/01/27 09:07:08;;;;;;;38.33;36.30;;;;;;;;;;5033748;28;20751;-59
2024/01/27 09:09:33;;;;;;;39.05;36.95;;;;;;;;;;5033032;28;20027;-60
2024/01/27 09:11:59;;;;;;;35.22;33.35;;;;;;;;;;5034901;28;20056;-59
2024/01/27 09:14:24;;;;;;;35.50;33.35;;;;;;;;;;5034981;28;20047;-58
2024/01/27 09:16:52;;;;;;;38.90;36.67;;;;;;;;;;5033821;28;20482;-59
2024/01/27 09:19:17;;;;;;;40.97;38.00;;;;;;;;;;5036043;28;20072;-58
2024/01/27 09:21:42;;;;;;;37.95;35.95;;;;;;;;;;5032193;28;20041;-53
2024/01/27 09:24:08;;;;;;;37.78;35.80;;;;;;;;;;5035103;28;20099;-50
2024/01/27 09:26:33;;;;;;;34.20;32.33;;;;;;;;;;5036204;28;20154;-53
2024/01/27 09:28:59;;;;;;;43.88;41.60;;;;;;;;;;5034830;28;20044;-52
2024/01/27 09:31:25;;;;;;;39.17;37.08;;;;;;;;;;5031430;28;20112;-50
2024/01/27 09:33:54;;;;;;;41.65;39.38;;;;;;;;;;5027565;28;20033;-54
2024/01/27 09:36:20;;;;;;;40.67;38.58;;;;;;;;;;5031232;28;20132;-55
2024/01/27 09:38:46;;;;;;;47.40;44.90;;;;;;;;;;5030836;28;20822;-55
2024/01/27 09:41:13;;;;;;;45.90;43.60;;;;;;;;;;5036149;28;20045;-57
2024/01/27 09:43:43;;;;;;;49.45;46.95;;;;;;;;;;5035742;28;20044;-55
2024/01/27 09:46:08;;;;;;;48.38;45.88;;;;;;;;;;5035193;28;20029;-54
2024/01/27 09:48:35;;;;;;;47.67;45.28;;;;;;;;;;5030918;28;20099;-56
2024/01/27 09:51:03;;;;;;;48.80;46.30;;;;;;;;;;5033672;28;20398;-55
2024/01/27 09:53:28;;;;;;;47.70;45.10;;;;;;;;;;5035248;28;20104;-54
2024/01/27 09:55:58;;;;;;;48.83;46.28;;;;;;;;;;5037706;28;20116;-56
2024/01/27 09:58:27;;;;;;;47.30;44.88;;;;;;;;;;5033484;28;20132;-55
2024/01/27 10:00:55;;;;;;;46.55;44.05;;;;;;;;;;5037227;28;20045;-55
2024/01/27 10:03:23;;;;;;;45.70;43.20;;;;;;;;;;5035018;28;20038;-56
2024/01/27 10:05:49;;;;;;;40.05;37.95;;;;;;;;;;5032663;28;20575;-55
2024/01/27 10:08:15;;;;;;;44.90;42.53;;;;;;;;;;5038423;28;20371;-56
2024/01/27 10:10:40;;;;;;;44.65;42.25;;;;;;;;;;5034756;28;20029;-55
2024/01/27 10:13:06;;;;;;;43.67;41.35;;;;;;;;;;5033385;28;20033;-55
2024/01/27 10:15:31;;;;;;;40.63;38.53;;;;;;;;;;5035103;28;20033;-54
2024/01/27 10:18:07;;;;;;;43.10;40.88;;;;;;;;;;5034566;28;20029;-52
2024/01/27 10:20:32;;;;;;;29.20;27.60;;;;;;;;;;5033755;28;20029;-56
2024/01/27 10:22:58;;;;;;;29.05;27.55;;;;;;;;;;5035996;28;20041;-57
2024/01/27 10:25:23;;;;;;;32.10;30.30;;;;;;;;;;5037338;28;20037;-58
2024/01/27 10:27:48;;;;;;;25.15;23.58;;;;;;;;;;5028186;28;20053;-59
2024/01/27 10:30:17;;;;;;;33.45;31.73;;;;;;;;;;5036754;28;20044;-59
2024/01/27 10:32:42;;;;;;;27.63;26.02;;;;;;;;;;5036533;28;20033;-58
2024/01/27 10:35:08;;;;;;;29.73;28.17;;;;;;;;;;5034115;28;20098;-58
2024/01/27 10:37:34;;;;;;;22.63;21.30;;;;;;;;;;5034348;28;20063;-58
2024/01/27 10:40:12;;;;;;;23.58;22.27;;;;;;;;;;5032320;28;20029;-59
2024/01/27 10:42:38;;;;;;;21.67;20.48;;;;;;;;;;5031476;28;20034;-59
2024/01/27 10:45:04;;;;;;;22.63;21.40;;;;;;;;;;5034468;28;20095;-59
2024/01/27 10:47:31;;;;;;;22.55;21.35;;;;;;;;;;5034174;28;20043;-59
2024/01/27 10:49:58;;;;;;;27.30;25.70;;;;;;;;;;5034753;28;20111;-58
2024/01/27 10:52:28;;;;;;;30.95;29.35;;;;;;;;;;5031413;28;20057;-59
2024/01/27 10:55:03;;;;;;;25.23;23.83;;;;;;;;;;5032046;28;20076;-59
2024/01/27 10:57:29;;;;;;;25.85;24.42;;;;;;;;;;5031938;28;20065;-59
2024/01/27 10:59:56;;;;;;;22.52;21.17;;;;;;;;;;5032301;28;20034;-59
2024/01/27 11:02:22;;;;;;;21.80;20.60;;;;;;;;;;5031696;28;20029;-59
2024/01/27 11:04:48;;;;;;;22.17;20.98;;;;;;;;;;5030592;28;20037;-59
2024/01/27 11:07:13;;;;;;;24.13;22.83;;;;;;;;;;5030469;28;20048;-59
2024/01/27 11:09:39;;;;;;;27.30;25.80;;;;;;;;;;5034381;28;20041;-59
2024/01/27 11:12:06;;;;;;;21.15;20.05;;;;;;;;;;5032069;28;20375;-59
2024/01/27 11:14:32;;;;;;;24.13;22.77;;;;;;;;;;5035863;28;20041;-60
2024/01/27 11:16:57;;;;;;;23.20;21.73;;;;;;;;;;5016901;28;20033;-60
2024/01/27 11:19:23;;;;;;;23.92;22.52;;;;;;;;;;5031665;28;20029;-59
2024/01/27 11:22:05;;;;;;;23.15;21.75;;;;;;;;;;5033243;28;20044;-59
2024/01/27 11:24:31;;;;;;;21.67;20.45;;;;;;;;;;5036229;28;20037;-59
2024/01/27 11:27:09;;;;;;;23.83;22.52;;;;;;;;;;5033152;28;20422;-58
2024/01/27 11:29:36;;;;;;;23.58;22.30;;;;;;;;;;5034326;28;20699;-58
2024/01/27 11:32:03;;;;;;;23.55;21.80;;;;;;;;;;5033760;28;20040;-60
2024/01/27 11:34:40;;;;;;;25.13;23.58;;;;;;;;;;5033897;28;20072;-58
2024/01/27 11:37:15;;;;;;;22.65;21.45;;;;;;;;;;5032832;28;20416;-48
2024/01/27 11:39:41;;;;;;;22.27;21.05;;;;;;;;;;5034063;28;20466;-51
2024/01/27 11:42:13;;;;;;;24.58;23.20;;;;;;;;;;5033085;28;20033;-53
2024/01/27 11:44:41;;;;;;;22.88;21.58;;;;;;;;;;5030902;28;20471;-50
2024/01/27 11:47:17;;;;;;;24.58;23.25;;;;;;;;;;5034917;28;20467;-50
2024/01/27 11:49:55;;;;;;;23.20;21.95;;;;;;;;;;5032718;28;20037;-52
2024/01/27 11:52:21;;;;;;;23.10;21.80;;;;;;;;;;5031346;28;20037;-48
2024/01/27 11:54:54;;;;;;;24.45;23.05;;;;;;;;;;5033370;28;20569;-46
2024/01/27 11:57:19;;;;;;;23.40;22.10;;;;;;;;;;5035075;28;20130;-49
2024/01/27 11:59:44;;;;;;;21.98;20.77;;;;;;;;;;5033040;28;20025;-46
2024/01/27 12:02:10;;;;;;;21.83;20.42;;;;;;;;;;5029958;28;20507;-50
2024/01/27 12:04:36;;;;;;;21.73;20.42;;;;;;;;;;5033231;28;20044;-52
2024/01/27 12:07:02;;;;;;;23.48;22.15;;;;;;;;;;5028911;28;20034;-51
2024/01/27 12:09:27;;;;;;;23.75;22.00;;;;;;;;;;5033580;28;20038;-46
2024/01/27 12:11:53;;;;;;;25.90;24.50;;;;;;;;;;5026015;28;20047;-48
2024/01/27 12:14:19;;;;;;;29.35;27.75;;;;;;;;;;5032851;28;20032;-46
2024/01/27 12:16:44;;;;;;;23.45;22.15;;;;;;;;;;5032106;28;20030;-50
2024/01/27 12:19:11;;;;;;;25.75;24.35;;;;;;;;;;5031372;28;20090;-47
2024/01/27 12:21:36;;;;;;;30.13;28.52;;;;;;;;;;5030942;28;20370;-47
2024/01/27 12:24:02;;;;;;;24.98;23.48;;;;;;;;;;5033535;28;20025;-50
2024/01/27 12:26:29;;;;;;;27.20;25.42;;;;;;;;;;5032261;28;20025;-46
2024/01/27 12:28:55;;;;;;;25.00;23.58;;;;;;;;;;5026335;28;20025;-49
2024/01/27 12:31:22;;;;;;;24.88;23.35;;;;;;;;;;5035137;28;20494;-45
2024/01/27 12:33:49;;;;;;;24.23;22.92;;;;;;;;;;5031350;28;20029;-50
2024/01/27 12:36:17;;;;;;;46.75;43.95;;;;;;;;;;5031091;28;20036;-46
2024/01/27 12:38:42;;;;;;;38.60;36.55;;;;;;;;;;5032433;28;20037;-45
2024/01/27 12:41:07;;;;;;;39.35;36.80;;;;;;;;;;5036411;28;20049;-49
2024/01/27 12:43:33;;;;;;;32.05;30.35;;;;;;;;;;5033610;28;20031;-49
2024/01/27 12:45:58;;;;;;;48.38;45.88;;;;;;;;;;5033076;28;20041;-47
2024/01/27 12:48:24;;;;;;;49.75;47.25;;;;;;;;;;5033063;28;20060;-47
2024/01/27 12:50:49;;;;;;;56.10;53.13;;;;;;;;;;5027086;28;20463;-48
2024/01/27 12:53:15;;;;;;;54.10;50.95;;;;;;;;;;5032903;28;20065;-48
2024/01/27 12:55:40;;;;;;;49.38;46.88;;;;;;;;;;5030847;28;20095;-46
2024/01/27 12:58:06;;;;;;;30.60;28.75;;;;;;;;;;5029207;28;20033;-51
2024/01/27 13:00:32;;;;;;;30.05;28.45;;;;;;;;;;5023378;28;20037;-50
2024/01/27 13:02:57;;;;;;;41.58;39.40;;;;;;;;;;5028001;28;20040;-47
2024/01/27 13:05:23;;;;;;;27.02;25.50;;;;;;;;;;5028993;28;20045;-49
2024/01/27 13:07:48;;;;;;;34.00;32.05;;;;;;;;;;5031544;28;20116;-47
2024/01/27 13:10:14;;;;;;;33.78;32.00;;;;;;;;;;5031783;28;20503;-47
2024/01/27 13:12:39;;;;;;;37.22;35.25;;;;;;;;;;5031969;28;20532;-49
2024/01/27 13:15:05;;;;;;;36.67;34.78;;;;;;;;;;5030702;28;20132;-48
2024/01/27 13:17:31;;;;;;;47.67;45.25;;;;;;;;;;5032517;28;20382;-46
2024/01/27 13:19:56;;;;;;;46.38;43.92;;;;;;;;;;5033861;28;20036;-52
2024/01/27 13:22:24;;;;;;;40.47;38.40;;;;;;;;;;5034180;28;20028;-50
2024/01/27 13:24:50;;;;;;;39.25;37.25;;;;;;;;;;5035300;28;20675;-50
2024/01/27 13:27:15;;;;;;;36.20;34.30;;;;;;;;;;5037451;28;20032;-48
2024/01/27 13:29:40;;;;;;;51.13;48.42;;;;;;;;;;5034556;28;20074;-47
2024/01/27 13:32:06;;;;;;;52.65;49.88;;;;;;;;;;5034760;28;20056;-49
2024/01/27 13:34:32;;;;;;;52.03;49.42;;;;;;;;;;5035885;28;20037;-50
2024/01/27 13:36:59;;;;;;;51.00;48.40;;;;;;;;;;5033262;28;20029;-49
2024/01/27 13:39:25;;;;;;;51.75;49.10;;;;;;;;;;5034733;28;20060;-49
2024/01/27 13:41:50;;;;;;;52.65;49.55;;;;;;;;;;5038181;28;20037;-49
2024/01/27 13:44:16;;;;;;;54.13;51.22;;;;;;;;;;5034529;28;20024;-51
2024/01/27 13:46:41;;;;;;;50.95;48.35;;;;;;;;;;5033638;28;20041;-49
2024/01/27 13:49:07;;;;;;;54.13;51.42;;;;;;;;;;5035248;28;20358;-48
2024/01/27 13:51:32;;;;;;;56.17;53.28;;;;;;;;;;5037031;28;20095;-51
2024/01/27 13:53:58;;;;;;;52.38;49.47;;;;;;;;;;5034398;28;20033;-49
2024/01/27 13:56:23;;;;;;;53.17;50.30;;;;;;;;;;5036232;28;20037;-49
2024/01/27 13:58:48;;;;;;;49.65;46.42;;;;;;;;;;5036993;28;20047;-50
2024/01/27 14:01:14;;;;;;;52.22;49.58;;;;;;;;;;5035966;28;20135;-50
2024/01/27 14:03:39;;;;;;;39.05;37.05;;;;;;;;;;5034817;28;20119;-49
2024/01/27 14:06:06;;;;;;;39.88;37.78;;;;;;;;;;5033861;28;20106;-51
2024/01/27 14:08:31;;;;;;;39.88;37.85;;;;;;;;;;5035567;28;20057;-48